Time;durP1;ratioP1;P1;durP2;ratioP2;P2;SDS_P1;SDS_P2;PMS_P1;PMS_P2;Temp;Humidity;BMP_temperature;BMP_pressure;BME280_temperature;BME280_humidity;BME280_pressure;Samples;Min_cycle;Max_cycle;Signal;HPM_P1;HPM_P2
2022/01/30 00:00:00;;;;;;;24.50;4.65;;;6.90;99.90;;;;;;6209708;23;20048;-75
2022/01/30 00:02:27;;;;;;;28.88;4.78;;;6.80;99.90;;;;;;6208927;23;20016;-75
2022/01/30 00:04:52;;;;;;;34.22;5.03;;;6.80;99.90;;;;;;6209068;23;20453;-75
2022/01/30 00:07:18;;;;;;;26.42;4.75;;;6.80;99.90;;;;;;6208253;23;20024;-76
2022/01/30 00:09:45;;;;;;;28.48;4.90;;;6.90;99.90;;;;;;6207250;23;20121;-75
2022/01/30 00:12:14;;;;;;;26.67;5.00;;;6.90;99.90;;;;;;6208388;23;20102;-76
2022/01/30 00:14:40;;;;;;;29.75;5.47;;;6.90;99.90;;;;;;6206448;23;20028;-76
2022/01/30 00:17:12;;;;;;;25.98;4.43;;;6.90;99.90;;;;;;6207789;23;20020;-74
2022/01/30 00:19:44;;;;;;;24.08;4.82;;;6.90;99.90;;;;;;6205216;23;20017;-75
2022/01/30 00:25:31;;;;;;;33.42;4.63;;;6.80;99.90;;;;;;6206903;23;20031;-75
2022/01/30 00:27:30;;;;;;;26.55;3.97;;;6.70;99.90;;;;;;6197495;23;20016;-75
2022/01/30 00:29:56;;;;;;;32.15;6.13;;;6.70;99.90;;;;;;6208078;23;20453;-75
2022/01/30 00:32:22;;;;;;;24.83;4.43;;;6.60;99.90;;;;;;6208457;23;20057;-75
2022/01/30 00:34:48;;;;;;;40.33;6.07;;;6.50;99.90;;;;;;6209930;23;20020;-76
2022/01/30 00:37:15;;;;;;;30.27;5.30;;;6.50;99.90;;;;;;6208045;23;20518;-75
2022/01/30 00:39:41;;;;;;;30.05;5.05;;;6.40;99.90;;;;;;6207619;23;20115;-75
2022/01/30 00:42:07;;;;;;;29.80;5.68;;;6.30;99.90;;;;;;6207002;23;20027;-75
2022/01/30 00:44:35;;;;;;;25.23;4.85;;;6.20;99.90;;;;;;6208372;23;20024;-76
2022/01/30 00:47:03;;;;;;;21.40;4.25;;;6.20;99.90;;;;;;6208038;23;20019;-76
2022/01/30 00:49:29;;;;;;;22.80;4.22;;;6.10;99.90;;;;;;6206678;23;20020;-76
2022/01/30 00:51:55;;;;;;;21.52;4.75;;;6.10;99.90;;;;;;6208024;23;20093;-75
2022/01/30 00:54:20;;;;;;;28.63;4.07;;;6.00;99.90;;;;;;6206073;23;20128;-76
2022/01/30 00:56:46;;;;;;;31.85;6.15;;;6.00;99.90;;;;;;6206650;23;20040;-74
2022/01/30 00:59:12;;;;;;;31.27;4.95;;;6.00;99.90;;;;;;6207970;23;20220;-76
2022/01/30 01:01:37;;;;;;;27.70;4.03;;;6.00;99.90;;;;;;6209504;23;20020;-76
2022/01/30 01:04:06;;;;;;;22.83;4.15;;;5.90;99.90;;;;;;6206262;23;20020;-75
2022/01/30 01:06:31;;;;;;;30.13;5.72;;;5.90;99.90;;;;;;6207620;23;20016;-75
2022/01/30 01:09:02;;;;;;;24.10;4.45;;;5.90;99.90;;;;;;6207919;23;20051;-75
2022/01/30 01:20:51;;;;;;;30.02;4.95;;;5.90;99.90;;;;;;6207564;23;20013;-75
2022/01/30 01:25:05;;;;;;;30.75;4.60;;;6.00;99.90;;;;;;6208158;23;20024;-76
2022/01/30 01:27:31;;;;;;;26.30;5.35;;;6.00;99.90;;;;;;6211546;23;20483;-75
2022/01/30 01:29:56;;;;;;;27.63;4.35;;;6.00;99.90;;;;;;6215434;23;20024;-75
2022/01/30 01:32:22;;;;;;;26.65;5.00;;;6.00;99.90;;;;;;6207416;23;20376;-76
2022/01/30 01:34:48;;;;;;;28.17;4.63;;;6.10;99.90;;;;;;6207932;23;20032;-76
2022/01/30 01:37:13;;;;;;;27.15;5.28;;;6.10;99.90;;;;;;6207803;23;20070;-75
2022/01/30 01:39:39;;;;;;;34.45;7.15;;;6.10;99.90;;;;;;6206395;23;20527;-75
2022/01/30 01:42:05;;;;;;;30.17;5.30;;;6.10;99.90;;;;;;6207295;23;20360;-75
2022/01/30 01:44:40;;;;;;;27.80;4.50;;;6.20;99.90;;;;;;6207056;23;20017;-75
2022/01/30 01:47:08;;;;;;;26.23;5.03;;;6.30;99.90;;;;;;6206559;23;20016;-77
2022/01/30 01:49:34;;;;;;;27.92;4.50;;;6.40;99.90;;;;;;6207358;23;20020;-76
2022/01/30 01:52:19;;;;;;;32.95;5.75;;;6.40;99.90;;;;;;6207044;23;20355;-75
2022/01/30 01:54:52;;;;;;;32.40;4.97;;;6.50;99.90;;;;;;6206090;23;20343;-75
2022/01/30 01:57:18;;;;;;;35.33;5.30;;;6.50;99.90;;;;;;6208760;23;20395;-74
2022/01/30 01:59:45;;;;;;;28.23;5.22;;;6.60;99.90;;;;;;6206074;23;20067;-75
2022/01/30 02:02:11;;;;;;;29.00;5.60;;;6.60;99.90;;;;;;6207992;23;20468;-75
2022/01/30 02:04:39;;;;;;;33.60;5.97;;;6.60;99.90;;;;;;6207375;23;20024;-75
2022/01/30 02:10:01;;;;;;;32.17;5.80;;;6.50;99.90;;;;;;6171518;23;20012;-74
2022/01/30 02:12:35;;;;;;;30.50;5.75;;;6.50;99.90;;;;;;6207395;23;20015;-76
2022/01/30 02:28:08;;;;;;;28.23;4.18;;;6.40;99.90;;;;;;6206715;23;20531;-75
2022/01/30 02:30:41;;;;;;;24.50;4.32;;;6.30;99.90;;;;;;6207408;23;20009;-74
2022/01/30 02:33:07;;;;;;;29.92;5.00;;;6.20;99.90;;;;;;6182268;23;20025;-74
2022/01/30 02:35:32;;;;;;;31.20;5.32;;;6.20;99.90;;;;;;6207269;23;20063;-74
2022/01/30 02:38:00;;;;;;;29.13;5.03;;;6.10;99.90;;;;;;6207877;23;20357;-76
2022/01/30 02:40:26;;;;;;;36.90;5.70;;;6.00;99.90;;;;;;6206118;23;20074;-76
2022/01/30 02:42:53;;;;;;;34.92;6.45;;;6.00;99.90;;;;;;6207280;23;20476;-76
2022/01/30 02:45:21;;;;;;;37.40;6.18;;;6.00;99.90;;;;;;6206404;23;20023;-76
2022/01/30 02:48:11;;;;;;;35.85;7.35;;;5.90;99.90;;;;;;6207852;23;20031;-76
2022/01/30 02:53:05;;;;;;;43.25;6.68;;;6.00;99.90;;;;;;6207237;23;20476;-76
2022/01/30 02:55:32;;;;;;;38.72;7.78;;;6.00;99.90;;;;;;6216881;23;20040;-74
2022/01/30 02:57:57;;;;;;;43.13;7.03;;;6.00;99.90;;;;;;6211176;23;20088;-74
2022/01/30 03:00:23;;;;;;;46.50;8.13;;;6.00;99.90;;;;;;6205478;23;20051;-75
2022/01/30 03:02:49;;;;;;;39.47;9.13;;;6.00;99.90;;;;;;6207492;23;20024;-75
2022/01/30 03:05:14;;;;;;;45.30;9.10;;;5.90;99.90;;;;;;6207479;23;20078;-75
2022/01/30 03:07:40;;;;;;;45.20;8.02;;;5.80;99.90;;;;;;6208089;23;20020;-74
2022/01/30 03:10:06;;;;;;;44.75;8.13;;;5.80;99.90;;;;;;6205740;23;20287;-74
2022/01/30 03:12:32;;;;;;;53.25;8.85;;;5.80;99.90;;;;;;6208049;23;20256;-75
2022/01/30 03:14:57;;;;;;;43.67;7.22;;;5.80;99.90;;;;;;6208173;23;20070;-75
2022/01/30 03:17:23;;;;;;;45.75;9.15;;;5.80;99.90;;;;;;6207037;23;20035;-74
2022/01/30 03:19:49;;;;;;;42.08;6.72;;;5.70;99.90;;;;;;6208164;23;20020;-74
2022/01/30 03:22:14;;;;;;;45.05;7.82;;;5.80;99.90;;;;;;6209246;23;20024;-75
2022/01/30 03:24:40;;;;;;;43.80;7.93;;;5.90;99.90;;;;;;6207592;23;20017;-76
2022/01/30 03:27:08;;;;;;;45.38;6.88;;;5.90;99.90;;;;;;6210301;23;20020;-76
2022/01/30 03:29:35;;;;;;;40.63;7.22;;;6.00;99.90;;;;;;6208158;23;20024;-75
2022/01/30 03:32:01;;;;;;;39.67;7.03;;;6.10;99.90;;;;;;6208074;23;20054;-74
2022/01/30 03:34:26;;;;;;;28.02;6.63;;;6.10;99.90;;;;;;6208922;23;20228;-74
2022/01/30 03:36:52;;;;;;;30.02;5.43;;;6.10;99.90;;;;;;6209358;23;20540;-73
2022/01/30 03:39:18;;;;;;;41.15;5.45;;;6.00;99.90;;;;;;6208138;23;20021;-75
2022/01/30 03:41:44;;;;;;;32.53;5.18;;;5.90;99.90;;;;;;6208402;23;20020;-74
2022/01/30 03:44:09;;;;;;;42.45;7.25;;;5.80;99.90;;;;;;6210345;23;20048;-73
2022/01/30 03:46:35;;;;;;;34.78;6.80;;;5.80;99.90;;;;;;6207951;23;20020;-74
2022/01/30 03:49:01;;;;;;;27.35;5.90;;;5.70;99.90;;;;;;6209652;23;20376;-75
2022/01/30 03:51:26;;;;;;;38.80;6.80;;;5.70;99.90;;;;;;6208124;23;20013;-75
2022/01/30 03:53:52;;;;;;;58.60;8.52;;;5.70;99.90;;;;;;6209192;23;20024;-75
2022/01/30 03:56:17;;;;;;;36.95;7.00;;;5.70;99.90;;;;;;6207026;23;20460;-75
2022/01/30 03:58:43;;;;;;;37.95;7.22;;;5.70;99.90;;;;;;6208329;23;20020;-76
2022/01/30 04:01:09;;;;;;;39.72;6.80;;;5.80;99.90;;;;;;6207747;23;20327;-76
2022/01/30 04:03:36;;;;;;;39.85;6.70;;;5.80;99.90;;;;;;6209483;23;20055;-76
2022/01/30 04:06:05;;;;;;;38.80;6.65;;;5.90;99.90;;;;;;6207538;23;20087;-75
2022/01/30 04:08:31;;;;;;;29.45;5.45;;;5.90;99.90;;;;;;6209325;23;20489;-75
2022/01/30 04:10:56;;;;;;;29.65;5.35;;;5.90;99.90;;;;;;6207732;23;20017;-74
2022/01/30 04:13:22;;;;;;;34.40;5.43;;;5.90;99.90;;;;;;6207584;23;20024;-75
2022/01/30 04:15:48;;;;;;;36.53;6.63;;;5.90;99.90;;;;;;6182719;23;20021;-75
2022/01/30 04:18:14;;;;;;;33.78;6.78;;;5.90;99.90;;;;;;6208020;23;20048;-74
2022/01/30 04:20:40;;;;;;;37.95;6.68;;;5.90;99.90;;;;;;6208315;23;20047;-75
2022/01/30 04:23:06;;;;;;;35.35;6.43;;;5.90;99.90;;;;;;6208429;23;20528;-74
2022/01/30 04:25:31;;;;;;;36.35;6.28;;;6.00;99.90;;;;;;6210488;23;20044;-75
2022/01/30 04:27:57;;;;;;;29.98;5.75;;;6.00;99.90;;;;;;6219807;23;20017;-74
2022/01/30 04:30:23;;;;;;;40.55;6.93;;;5.90;99.90;;;;;;6209709;23;20027;-74
2022/01/30 04:32:48;;;;;;;32.28;5.45;;;5.90;99.90;;;;;;6211298;23;20023;-74
2022/01/30 04:35:22;;;;;;;26.73;5.85;;;5.90;99.90;;;;;;6207147;23;20334;-74
2022/01/30 04:57:03;;;;;;;40.13;8.10;;;5.80;99.90;;;;;;6206659;23;20013;-75
2022/01/30 05:02:08;;;;;;;39.42;6.70;;;5.80;99.90;;;;;;6207036;23;20012;-74
2022/01/30 05:04:49;;;;;;;40.65;6.43;;;5.80;99.90;;;;;;6207178;23;20119;-75
2022/01/30 05:09:42;;;;;;;27.13;5.82;;;5.90;99.90;;;;;;6206361;23;20055;-75
2022/01/30 05:12:09;;;;;;;37.85;7.38;;;5.90;99.90;;;;;;6207476;23;20098;-74
2022/01/30 05:14:36;;;;;;;43.88;7.25;;;5.80;99.90;;;;;;6210481;23;20036;-74
2022/01/30 05:17:06;;;;;;;41.65;7.43;;;5.80;99.90;;;;;;6206419;23;20161;-75
2022/01/30 05:19:32;;;;;;;39.90;6.43;;;5.80;99.90;;;;;;6208440;23;20040;-74
2022/01/30 05:21:58;;;;;;;36.35;7.85;;;5.80;99.90;;;;;;6209818;23;20353;-74
2022/01/30 05:24:24;;;;;;;45.67;7.75;;;5.80;99.90;;;;;;6207174;23;20023;-74
2022/01/30 05:26:53;;;;;;;39.28;8.00;;;5.80;99.90;;;;;;6207591;23;20360;-74
2022/01/30 05:29:18;;;;;;;43.25;7.80;;;5.80;99.90;;;;;;6207704;23;20021;-74
2022/01/30 05:31:44;;;;;;;40.13;7.22;;;5.80;99.90;;;;;;6206848;23;20017;-73
2022/01/30 05:34:10;;;;;;;35.00;7.28;;;5.80;99.90;;;;;;6209499;23;20032;-75
2022/01/30 05:36:40;;;;;;;45.72;7.10;;;5.80;99.90;;;;;;6207782;23;20027;-74
2022/01/30 05:39:07;;;;;;;48.70;7.05;;;5.80;99.90;;;;;;6208950;23;20035;-73
2022/01/30 05:41:34;;;;;;;42.25;5.82;;;5.80;99.90;;;;;;6208416;23;20013;-73
2022/01/30 05:44:09;;;;;;;37.38;7.53;;;5.80;99.90;;;;;;6206644;23;20103;-73
2022/01/30 05:46:46;;;;;;;36.78;6.22;;;5.90;99.90;;;;;;6207145;23;20476;-74
2022/01/30 05:49:14;;;;;;;36.42;6.93;;;5.90;99.90;;;;;;6207586;23;20464;-75
2022/01/30 05:51:39;;;;;;;43.42;7.03;;;6.00;99.90;;;;;;6207379;23;20024;-74
2022/01/30 05:54:05;;;;;;;47.08;7.40;;;6.10;99.90;;;;;;6208886;23;20028;-74
2022/01/30 05:56:31;;;;;;;37.78;8.60;;;6.10;99.90;;;;;;6215336;23;20013;-73
2022/01/30 05:58:56;;;;;;;39.97;7.97;;;6.10;99.90;;;;;;6210290;23;20012;-73
2022/01/30 06:01:22;;;;;;;51.33;6.88;;;6.10;99.90;;;;;;6206927;23;20025;-74
2022/01/30 06:03:47;;;;;;;28.48;6.53;;;6.10;99.90;;;;;;6208307;23;20043;-74
2022/01/30 06:06:13;;;;;;;39.55;6.85;;;6.00;99.90;;;;;;6206782;23;20040;-73
2022/01/30 06:08:58;;;;;;;45.47;7.60;;;6.00;99.90;;;;;;6208348;23;20083;-73
2022/01/30 06:11:23;;;;;;;57.95;10.02;;;6.00;99.90;;;;;;6206783;23;20021;-75
2022/01/30 06:13:49;;;;;;;43.00;6.65;;;6.00;99.90;;;;;;6206736;23;20028;-74
2022/01/30 06:16:15;;;;;;;38.88;7.15;;;5.90;99.90;;;;;;6205922;23;20059;-74
2022/01/30 06:18:41;;;;;;;43.20;7.65;;;5.90;99.90;;;;;;6209130;23;20024;-74
2022/01/30 06:21:06;;;;;;;45.15;8.25;;;5.90;99.90;;;;;;6207733;23;20025;-74
2022/01/30 06:23:32;;;;;;;46.67;7.18;;;5.90;99.90;;;;;;6209703;23;20377;-73
2022/01/30 06:25:58;;;;;;;43.20;8.32;;;5.80;99.90;;;;;;6206545;23;20024;-73
2022/01/30 06:28:23;;;;;;;44.72;6.78;;;5.90;99.90;;;;;;6206043;23;20071;-74
2022/01/30 06:30:49;;;;;;;35.35;7.40;;;5.90;99.90;;;;;;6207494;23;20455;-74
2022/01/30 06:33:15;;;;;;;38.70;6.68;;;6.00;99.90;;;;;;6206217;23;20048;-74
2022/01/30 06:35:41;;;;;;;41.67;8.80;;;6.00;99.90;;;;;;6182638;23;20020;-74
2022/01/30 06:38:06;;;;;;;41.33;7.47;;;6.10;99.90;;;;;;6207454;23;20027;-74
2022/01/30 06:40:32;;;;;;;39.78;7.75;;;6.20;99.90;;;;;;6207158;23;20028;-73
2022/01/30 06:42:58;;;;;;;43.67;7.28;;;6.20;99.90;;;;;;6207517;23;20008;-73
2022/01/30 06:45:24;;;;;;;40.90;6.53;;;6.20;99.90;;;;;;6206715;23;20043;-74
2022/01/30 06:47:51;;;;;;;44.50;8.35;;;6.20;99.90;;;;;;6206534;23;20047;-74
2022/01/30 06:50:18;;;;;;;42.78;8.27;;;6.30;99.90;;;;;;6207105;23;20103;-74
2022/01/30 06:52:43;;;;;;;36.55;6.60;;;6.20;99.90;;;;;;6207981;23;20047;-74
2022/01/30 06:55:10;;;;;;;50.30;8.02;;;6.20;99.90;;;;;;6207483;23;20379;-72
2022/01/30 06:57:41;;;;;;;37.05;7.07;;;6.20;99.90;;;;;;6211191;23;20031;-74
2022/01/30 07:00:08;;;;;;;51.53;7.97;;;6.20;99.90;;;;;;6209117;23;20017;-74
2022/01/30 07:02:37;;;;;;;46.42;7.68;;;6.20;99.90;;;;;;6210096;23;20027;-74
2022/01/30 07:05:03;;;;;;;36.78;7.65;;;6.20;99.90;;;;;;6209141;23;20009;-75
2022/01/30 07:07:29;;;;;;;39.03;7.60;;;6.20;99.90;;;;;;6210613;23;20024;-73
2022/01/30 07:09:55;;;;;;;49.30;9.35;;;6.20;99.90;;;;;;6207495;23;20017;-73
2022/01/30 07:12:21;;;;;;;40.00;8.55;;;6.20;99.90;;;;;;6207468;23;20492;-73
2022/01/30 07:14:47;;;;;;;48.28;8.85;;;6.20;99.90;;;;;;6209739;23;20043;-73
2022/01/30 07:17:12;;;;;;;42.22;7.18;;;6.10;99.90;;;;;;6208548;23;20028;-73
2022/01/30 07:19:38;;;;;;;50.20;8.68;;;6.10;99.90;;;;;;6210203;23;20020;-73
2022/01/30 07:22:07;;;;;;;49.53;7.93;;;6.10;99.90;;;;;;6215552;23;20021;-73
2022/01/30 07:24:33;;;;;;;36.38;7.93;;;6.10;99.90;;;;;;6220038;23;20528;-73
2022/01/30 07:26:59;;;;;;;32.97;8.05;;;6.10;99.90;;;;;;6215392;23;20095;-74
2022/01/30 07:29:25;;;;;;;45.17;7.45;;;6.10;99.90;;;;;;6229986;23;20025;-74
2022/01/30 07:31:51;;;;;;;36.08;6.97;;;6.00;99.90;;;;;;6211147;23;20492;-74
2022/01/30 07:34:17;;;;;;;46.90;9.30;;;6.00;99.90;;;;;;6210698;23;20048;-74
2022/01/30 07:36:43;;;;;;;51.85;10.15;;;6.00;99.90;;;;;;6208545;23;20051;-74
2022/01/30 07:39:12;;;;;;;41.55;8.43;;;6.00;99.90;;;;;;6210315;23;20016;-74
2022/01/30 07:41:37;;;;;;;42.00;7.00;;;6.00;99.90;;;;;;6208024;23;20088;-74
2022/01/30 07:44:04;;;;;;;43.47;7.07;;;6.00;99.90;;;;;;6207085;23;20524;-73
2022/01/30 07:46:30;;;;;;;36.47;6.78;;;6.10;99.90;;;;;;6210382;23;20067;-74
2022/01/30 07:48:59;;;;;;;47.92;8.63;;;6.10;99.90;;;;;;6211398;23;20336;-74
2022/01/30 07:51:25;;;;;;;40.33;7.07;;;6.10;99.90;;;;;;6206034;23;20013;-74
2022/01/30 07:53:50;;;;;;;45.50;8.25;;;6.10;99.90;;;;;;6209065;23;20025;-74
2022/01/30 07:56:16;;;;;;;49.65;8.20;;;6.00;99.90;;;;;;6182039;23;20036;-73
2022/01/30 07:58:42;;;;;;;47.65;8.93;;;6.10;99.90;;;;;;6207941;23;20221;-74
2022/01/30 08:01:07;;;;;;;47.35;7.15;;;6.10;99.90;;;;;;6208178;23;20017;-74
2022/01/30 08:03:36;;;;;;;36.42;7.75;;;6.10;99.90;;;;;;6210061;23;20251;-73
2022/01/30 08:06:02;;;;;;;44.50;8.38;;;6.10;99.90;;;;;;6207031;23;20039;-75
2022/01/30 08:08:27;;;;;;;44.15;7.22;;;6.00;99.90;;;;;;6208254;23;20020;-73
2022/01/30 08:10:53;;;;;;;38.58;7.43;;;6.00;99.90;;;;;;6206895;23;20012;-73
2022/01/30 08:13:21;;;;;;;37.20;6.75;;;5.90;99.90;;;;;;6209119;23;20020;-73
2022/01/30 08:15:47;;;;;;;31.08;6.18;;;5.80;99.90;;;;;;6206263;23;20024;-74
2022/01/30 08:18:12;;;;;;;32.88;6.15;;;5.70;99.90;;;;;;6207010;23;20460;-74
2022/01/30 08:20:38;;;;;;;31.08;6.25;;;5.70;99.90;;;;;;6208266;23;20021;-72
2022/01/30 08:23:10;;;;;;;26.38;6.15;;;5.60;99.90;;;;;;6207865;23;20021;-72
2022/01/30 08:25:36;;;;;;;38.92;6.45;;;5.60;99.90;;;;;;6180705;23;20278;-73
2022/01/30 08:28:02;;;;;;;33.63;7.63;;;5.60;99.90;;;;;;6208470;23;20516;-74
2022/01/30 08:30:28;;;;;;;33.97;6.45;;;5.60;99.90;;;;;;6207424;23;20074;-72
2022/01/30 08:32:54;;;;;;;46.45;7.07;;;5.60;99.90;;;;;;6206802;23;20094;-73
2022/01/30 08:35:20;;;;;;;34.75;5.80;;;5.60;99.90;;;;;;6206722;23;20048;-73
2022/01/30 08:37:47;;;;;;;41.50;7.07;;;5.70;99.90;;;;;;6208693;23;20361;-73
2022/01/30 08:40:15;;;;;;;42.83;7.90;;;5.70;99.90;;;;;;6206652;23;20365;-74
2022/01/30 08:42:41;;;;;;;51.97;7.28;;;5.70;99.90;;;;;;6207346;23;20030;-73
2022/01/30 08:45:11;;;;;;;40.03;8.10;;;5.60;99.90;;;;;;6205234;23;20020;-75
2022/01/30 08:47:37;;;;;;;47.03;8.98;;;5.60;99.90;;;;;;6208800;23;20155;-75
2022/01/30 08:50:05;;;;;;;44.58;7.38;;;5.60;99.90;;;;;;6193540;23;20096;-73
2022/01/30 08:52:30;;;;;;;36.95;7.60;;;5.70;99.90;;;;;;6233091;23;20027;-73
2022/01/30 08:54:57;;;;;;;46.58;7.70;;;5.70;99.90;;;;;;6207267;23;20017;-73
2022/01/30 08:57:22;;;;;;;38.97;7.05;;;5.80;99.90;;;;;;6204820;23;20068;-73
2022/01/30 08:59:48;;;;;;;44.40;9.75;;;5.80;99.90;;;;;;6236368;23;20040;-73
2022/01/30 09:02:15;;;;;;;35.00;9.35;;;5.90;99.90;;;;;;6207739;23;20020;-74
2022/01/30 09:04:41;;;;;;;39.42;7.72;;;5.90;99.90;;;;;;6209238;23;20028;-73
2022/01/30 09:07:07;;;;;;;38.45;6.55;;;6.00;99.90;;;;;;6206069;23;20020;-73
2022/01/30 09:09:32;;;;;;;42.20;7.25;;;6.00;99.90;;;;;;6207761;23;20019;-74
2022/01/30 09:11:58;;;;;;;33.42;6.80;;;6.00;99.90;;;;;;6206759;23;20085;-73
2022/01/30 09:14:25;;;;;;;41.03;7.30;;;6.10;99.90;;;;;;6208877;23;20140;-72
2022/01/30 09:16:51;;;;;;;41.67;7.07;;;6.10;99.90;;;;;;6205263;23;20103;-73
2022/01/30 09:19:16;;;;;;;47.78;9.27;;;6.20;99.90;;;;;;6208355;23;20055;-73
2022/01/30 09:21:42;;;;;;;44.78;7.35;;;6.20;99.90;;;;;;6208690;23;20326;-73
2022/01/30 09:24:08;;;;;;;54.50;9.60;;;6.30;99.90;;;;;;6208985;23;20028;-74
2022/01/30 09:26:39;;;;;;;43.72;9.02;;;6.50;99.90;;;;;;6206872;23;20017;-73
2022/01/30 09:29:05;;;;;;;54.17;8.70;;;6.60;99.90;;;;;;6207970;23;20099;-74
2022/01/30 09:31:30;;;;;;;43.35;8.10;;;6.70;99.90;;;;;;6208597;23;20043;-74
2022/01/30 09:33:56;;;;;;;50.90;8.40;;;6.80;99.90;;;;;;6206981;23;20124;-73
2022/01/30 09:36:21;;;;;;;52.53;10.38;;;6.70;99.90;;;;;;6206345;23;20047;-74
2022/01/30 09:38:47;;;;;;;43.10;7.75;;;6.60;99.90;;;;;;6206693;23;20032;-72
2022/01/30 09:41:14;;;;;;;45.45;8.80;;;6.50;99.90;;;;;;6204571;23;20075;-73
2022/01/30 09:43:40;;;;;;;44.22;7.53;;;6.40;99.90;;;;;;6205481;23;20020;-73
2022/01/30 09:46:06;;;;;;;38.53;7.35;;;6.40;99.90;;;;;;6206988;23;20020;-74
2022/01/30 09:48:35;;;;;;;45.17;8.13;;;6.30;99.90;;;;;;6207095;23;20514;-74
2022/01/30 09:51:04;;;;;;;37.35;7.25;;;6.30;99.90;;;;;;6205479;23;20021;-74
2022/01/30 09:53:31;;;;;;;45.10;7.03;;;6.40;99.90;;;;;;6207701;23;20031;-72
2022/01/30 09:55:57;;;;;;;42.90;6.78;;;6.40;99.90;;;;;;6208118;23;20024;-73
2022/01/30 09:58:25;;;;;;;38.33;7.05;;;6.40;99.90;;;;;;6202934;23;20078;-71
2022/01/30 10:00:51;;;;;;;45.92;7.68;;;6.50;99.90;;;;;;6207307;23;20013;-72
2022/01/30 10:03:22;;;;;;;42.38;8.25;;;6.50;99.90;;;;;;6207043;23;20082;-73
2022/01/30 10:06:07;;;;;;;53.67;7.40;;;6.60;99.90;;;;;;6206191;23;20099;-73
2022/01/30 10:08:42;;;;;;;61.30;8.88;;;6.70;99.90;;;;;;6209053;23;20048;-73
2022/01/30 10:14:10;;;;;;;39.92;6.97;;;6.70;99.90;;;;;;6208202;23;20017;-74
2022/01/30 10:16:49;;;;;;;37.15;7.45;;;6.70;99.90;;;;;;6206223;23;20221;-74
2022/01/30 10:19:21;;;;;;;33.15;6.47;;;6.70;99.90;;;;;;6205367;23;20365;-73
2022/01/30 10:21:48;;;;;;;35.90;7.18;;;6.70;99.90;;;;;;6203294;23;20353;-74
2022/01/30 10:24:23;;;;;;;38.10;6.15;;;6.70;99.90;;;;;;6203928;23;20040;-73
2022/01/30 10:26:50;;;;;;;37.15;7.53;;;6.80;99.90;;;;;;6204939;23;20457;-73
2022/01/30 10:29:27;;;;;;;41.47;7.20;;;6.90;99.90;;;;;;6208249;23;20103;-72
2022/01/30 10:32:10;;;;;;;35.90;5.80;;;6.90;99.90;;;;;;6207879;23;20016;-73
2022/01/30 10:34:37;;;;;;;39.13;7.80;;;6.80;99.90;;;;;;6209911;23;20040;-73
2022/01/30 10:37:19;;;;;;;47.15;7.20;;;6.80;99.90;;;;;;6210481;23;20024;-74
2022/01/30 10:40:10;;;;;;;44.53;8.07;;;6.70;99.90;;;;;;6209155;23;20028;-73
2022/01/30 10:42:51;;;;;;;37.90;6.18;;;6.70;99.90;;;;;;6209024;23;20021;-74
2022/01/30 10:45:28;;;;;;;32.50;6.28;;;6.70;99.90;;;;;;6209082;23;20063;-74
2022/01/30 10:48:13;;;;;;;37.40;7.63;;;6.70;99.90;;;;;;6208393;23;20070;-72
2022/01/30 10:50:42;;;;;;;48.22;7.45;;;6.80;99.90;;;;;;6207579;23;20025;-73
2022/01/30 10:53:23;;;;;;;38.10;6.57;;;6.70;99.90;;;;;;6208414;23;20071;-73
2022/01/30 10:55:49;;;;;;;39.58;7.05;;;6.80;99.90;;;;;;6209812;23;20071;-73
2022/01/30 10:58:20;;;;;;;42.38;6.93;;;6.80;99.90;;;;;;6195932;23;20463;-74
2022/01/30 11:00:53;;;;;;;34.95;7.05;;;6.80;99.90;;;;;;6208086;23;20313;-72
2022/01/30 11:03:40;;;;;;;32.23;6.93;;;6.80;99.90;;;;;;6209131;23;20016;-73
2022/01/30 11:06:10;;;;;;;25.73;5.22;;;6.90;99.90;;;;;;6207413;23;20288;-74
2022/01/30 11:08:39;;;;;;;27.60;6.07;;;6.90;99.90;;;;;;6206821;23;20036;-73
2022/01/30 11:11:24;;;;;;;32.40;6.35;;;6.90;99.90;;;;;;6207414;23;20119;-73
2022/01/30 11:19:27;;;;;;;39.58;6.88;;;7.00;99.90;;;;;;6211245;23;20020;-81
2022/01/30 11:21:57;;;;;;;41.92;7.13;;;7.00;99.90;;;;;;6210656;23;20012;-78
2022/01/30 11:24:25;;;;;;;35.42;7.68;;;7.00;99.90;;;;;;6208538;23;20441;-77
2022/01/30 11:26:53;;;;;;;50.47;7.90;;;7.10;99.90;;;;;;6209848;23;20021;-78
2022/01/30 11:29:20;;;;;;;43.78;7.93;;;7.10;99.90;;;;;;6207000;23;20013;-77
2022/01/30 11:31:50;;;;;;;46.40;8.55;;;7.20;99.90;;;;;;6207130;23;20020;-78
2022/01/30 11:34:16;;;;;;;38.50;6.85;;;7.20;99.90;;;;;;6206614;23;20039;-78
2022/01/30 11:36:45;;;;;;;36.78;6.70;;;7.20;99.90;;;;;;6207831;23;20178;-78
2022/01/30 11:39:18;;;;;;;37.25;7.22;;;7.20;99.90;;;;;;6208632;23;20408;-78
2022/01/30 11:42:09;;;;;;;40.90;7.68;;;7.30;99.90;;;;;;6210781;23;20017;-77
2022/01/30 11:44:35;;;;;;;34.25;6.82;;;7.20;99.90;;;;;;6207474;23;20021;-79
2022/01/30 11:47:04;;;;;;;45.78;8.85;;;7.30;99.90;;;;;;6211537;23;20051;-78
2022/01/30 11:49:41;;;;;;;46.35;9.48;;;7.30;99.90;;;;;;6209732;23;20376;-77
2022/01/30 11:52:11;;;;;;;43.40;6.80;;;7.40;99.90;;;;;;6209673;23;20024;-78
2022/01/30 11:54:45;;;;;;;36.60;7.15;;;7.50;99.90;;;;;;6208735;23;20291;-78
2022/01/30 11:57:20;;;;;;;38.58;5.57;;;7.40;99.90;;;;;;6205007;23;20051;-77
2022/01/30 11:59:47;;;;;;;39.83;6.80;;;7.20;99.90;;;;;;6211380;23;20028;-79
2022/01/30 12:02:25;;;;;;;37.42;8.30;;;7.10;99.90;;;;;;6207217;23;20048;-78
2022/01/30 12:05:04;;;;;;;42.97;6.78;;;7.00;99.90;;;;;;6208825;23;20029;-78
2022/01/30 12:07:35;;;;;;;31.23;5.07;;;7.00;99.90;;;;;;6209641;23;20021;-78
2022/01/30 12:10:15;;;;;;;31.17;6.00;;;7.00;99.90;;;;;;6209038;23;20032;-77
2022/01/30 12:12:47;;;;;;;39.90;6.28;;;7.20;99.90;;;;;;6208223;23;20350;-79
2022/01/30 12:15:41;;;;;;;42.03;6.90;;;7.30;99.90;;;;;;6209537;23;20029;-77
2022/01/30 12:18:14;;;;;;;35.38;5.68;;;7.30;99.90;;;;;;6211124;23;20017;-77
2022/01/30 12:21:01;;;;;;;41.13;6.80;;;7.30;99.90;;;;;;6209630;23;20260;-78
2022/01/30 12:23:34;;;;;;;35.70;6.30;;;7.30;99.90;;;;;;6209131;23;20380;-77
2022/01/30 12:26:09;;;;;;;29.00;5.53;;;7.30;99.90;;;;;;6207567;23;20020;-76
2022/01/30 12:28:51;;;;;;;44.55;7.38;;;7.30;99.90;;;;;;6208987;23;20095;-78
2022/01/30 12:31:33;;;;;;;32.67;5.82;;;7.30;99.90;;;;;;6205317;23;20021;-77
2022/01/30 12:34:10;;;;;;;28.52;6.05;;;7.30;99.90;;;;;;6204890;23;20489;-78
2022/01/30 12:36:41;;;;;;;36.17;6.88;;;7.30;99.90;;;;;;6210034;23;20373;-78
2022/01/30 12:39:16;;;;;;;36.42;6.60;;;7.30;99.90;;;;;;6207509;23;20421;-77
2022/01/30 12:41:42;;;;;;;36.60;6.07;;;7.20;99.90;;;;;;6182623;23;20020;-78
2022/01/30 12:44:10;;;;;;;35.78;6.47;;;7.10;99.90;;;;;;6209536;23;20020;-79
2022/01/30 12:46:46;;;;;;;40.70;7.30;;;7.10;99.90;;;;;;6205820;23;20024;-78
2022/01/30 12:49:19;;;;;;;39.42;7.80;;;7.20;99.90;;;;;;6209137;23;20027;-80
2022/01/30 12:51:51;;;;;;;41.95;6.28;;;7.20;99.90;;;;;;6207676;23;20021;-82
2022/01/30 12:54:20;;;;;;;29.52;5.25;;;7.30;99.90;;;;;;6208782;23;20090;-82
2022/01/30 12:56:46;;;;;;;38.45;7.25;;;7.40;99.90;;;;;;6208531;23;20017;-77
2022/01/30 12:59:14;;;;;;;40.20;6.80;;;7.60;99.90;;;;;;6209033;23;20028;-77
2022/01/30 13:01:42;;;;;;;38.33;7.00;;;7.60;99.90;;;;;;6207822;23;20012;-77
2022/01/30 13:04:11;;;;;;;36.45;6.55;;;7.70;99.90;;;;;;6204438;23;20020;-78
2022/01/30 13:06:48;;;;;;;38.60;7.40;;;7.70;99.90;;;;;;6208852;23;20013;-76
2022/01/30 13:09:21;;;;;;;22.63;5.68;;;7.70;99.90;;;;;;6206413;23;20055;-76
2022/01/30 13:11:50;;;;;;;42.63;7.75;;;7.80;99.90;;;;;;6207275;23;20495;-75
2022/01/30 13:14:16;;;;;;;45.13;7.95;;;7.80;99.90;;;;;;6206647;23;20151;-76
2022/01/30 13:16:50;;;;;;;33.97;6.60;;;7.80;99.90;;;;;;6206342;23;20191;-77
2022/01/30 13:19:37;;;;;;;35.67;6.20;;;7.70;99.90;;;;;;6207106;23;20420;-76
2022/01/30 13:22:06;;;;;;;33.60;5.75;;;7.70;99.90;;;;;;6206113;23;20364;-76
2022/01/30 13:24:32;;;;;;;34.88;6.22;;;7.70;99.90;;;;;;6206478;23;20017;-77
2022/01/30 13:27:06;;;;;;;31.77;6.03;;;7.60;99.90;;;;;;6205711;23;20040;-77
2022/01/30 13:29:35;;;;;;;40.58;6.50;;;7.50;99.90;;;;;;6206198;23;20110;-76
2022/01/30 13:32:07;;;;;;;48.42;7.45;;;7.50;99.90;;;;;;6206064;23;20021;-76
2022/01/30 13:34:34;;;;;;;36.80;6.75;;;7.50;99.90;;;;;;6206106;23;20032;-76
2022/01/30 13:37:10;;;;;;;34.22;6.35;;;7.40;99.90;;;;;;6209198;23;20016;-77
2022/01/30 13:39:42;;;;;;;34.25;6.43;;;7.50;99.90;;;;;;6204852;23;20043;-77
2022/01/30 13:42:28;;;;;;;46.25;8.10;;;7.50;99.90;;;;;;6206678;23;20091;-76
2022/01/30 13:46:56;;;;;;;37.53;5.65;;;7.50;99.90;;;;;;6207039;23;20063;-75
2022/01/30 13:47:53;;;;;;;36.55;6.30;;;7.50;99.90;;;;;;6201852;23;20027;-77
2022/01/30 13:50:21;;;;;;;38.55;6.95;;;7.50;99.90;;;;;;6207627;23;20074;-77
2022/01/30 13:52:47;;;;;;;32.60;6.80;;;7.50;99.90;;;;;;6208079;23;20040;-77
2022/01/30 13:55:13;;;;;;;28.42;5.43;;;7.50;99.90;;;;;;6205500;23;20021;-77
2022/01/30 13:57:42;;;;;;;36.88;6.45;;;7.40;99.90;;;;;;6205856;23;20528;-76